createdAt,value
2018-06-20T00:01:11.384Z,21.50
2018-06-20T00:03:39.651Z,21.40
2018-06-20T00:06:07.891Z,21.40
2018-06-20T00:08:40.311Z,21.40
2018-06-20T00:13:36.520Z,21.40
2018-06-20T00:16:04.804Z,21.40
2018-06-20T00:18:33.007Z,21.40
2018-06-20T00:21:01.203Z,21.40
2018-06-20T00:23:29.447Z,21.30
2018-06-20T00:25:57.654Z,21.40
2018-06-20T00:28:25.863Z,21.40
2018-06-20T00:30:54.066Z,21.30
2018-06-20T00:33:22.274Z,21.30
2018-06-20T00:35:50.470Z,21.20
2018-06-20T00:38:18.780Z,21.10
2018-06-20T00:40:46.955Z,21.10
2018-06-20T00:45:43.115Z,21.20
2018-06-20T00:53:07.276Z,21.20
2018-06-20T00:55:46.868Z,21.10
2018-06-20T00:58:15.072Z,21.10
2018-06-20T01:03:11.220Z,21.10
2018-06-20T01:05:39.423Z,21.10
2018-06-20T01:08:07.631Z,20.90
2018-06-20T01:10:35.835Z,20.80
2018-06-20T01:13:04.046Z,20.90
2018-06-20T01:15:32.256Z,21.00
2018-06-20T01:18:00.455Z,21.00
2018-06-20T01:20:28.668Z,21.00
2018-06-20T01:22:56.870Z,20.80
2018-06-20T01:25:25.091Z,20.80
2018-06-20T01:27:53.317Z,20.90
2018-06-20T01:32:49.463Z,20.80
2018-06-20T01:37:45.636Z,20.80
2018-06-20T01:42:41.961Z,20.70
2018-06-20T01:45:10.186Z,20.70
2018-06-20T01:47:38.370Z,20.70
2018-06-20T01:50:06.612Z,20.70
2018-06-20T01:52:34.819Z,20.70
2018-06-20T01:55:03.024Z,20.70
2018-06-20T01:57:31.231Z,20.70
2018-06-20T01:59:59.415Z,20.70
2018-06-20T02:02:27.617Z,20.60
2018-06-20T02:07:23.775Z,20.40
2018-06-20T02:09:52.044Z,20.30
2018-06-20T02:14:48.261Z,20.30
2018-06-20T02:17:16.471Z,20.30
2018-06-20T02:19:44.693Z,20.30
2018-06-20T02:22:12.899Z,20.30
2018-06-20T02:24:41.188Z,20.20
2018-06-20T02:27:09.392Z,20.10
2018-06-20T02:29:37.588Z,20.10
2018-06-20T02:32:05.779Z,20.00
2018-06-20T02:34:33.983Z,20.00
2018-06-20T02:37:02.165Z,20.00
2018-06-20T02:39:30.383Z,19.90
2018-06-20T02:41:58.727Z,19.90
2018-06-20T02:44:26.928Z,19.80
2018-06-20T02:46:55.116Z,19.80
2018-06-20T02:49:23.325Z,19.70
2018-06-20T02:51:51.567Z,19.70
2018-06-20T02:54:19.892Z,19.70
2018-06-20T02:59:16.099Z,19.60
2018-06-20T03:01:44.375Z,19.50
2018-06-20T03:04:12.649Z,19.50
2018-06-20T03:06:40.907Z,19.50
2018-06-20T03:09:14.643Z,19.50
2018-06-20T03:11:43.686Z,19.50
2018-06-20T03:14:11.887Z,19.50
2018-06-20T03:16:40.111Z,19.30
2018-06-20T03:19:08.295Z,19.30
2018-06-20T03:21:36.554Z,19.30
2018-06-20T03:24:04.735Z,19.30
2018-06-20T03:26:33.072Z,19.30
2018-06-20T03:31:29.611Z,19.40
2018-06-20T03:33:57.926Z,19.40
2018-06-20T03:36:26.507Z,19.40
2018-06-20T03:41:22.668Z,19.50
2018-06-20T03:43:51.207Z,19.50
2018-06-20T03:46:19.512Z,19.50
2018-06-20T03:48:47.910Z,19.70
2018-06-20T03:58:40.032Z,19.60
2018-06-20T04:01:08.238Z,19.70
2018-06-20T04:03:36.431Z,19.70
2018-06-20T04:06:04.644Z,19.60
2018-06-20T04:08:32.863Z,19.60
2018-06-20T04:11:01.063Z,19.60
2018-06-20T04:13:29.395Z,19.60
2018-06-20T04:15:57.623Z,19.60
2018-06-20T04:18:35.262Z,19.60
2018-06-20T04:23:31.482Z,19.70
2018-06-20T04:25:59.679Z,19.70
2018-06-20T04:28:27.943Z,19.70
2018-06-20T04:30:56.145Z,19.70
2018-06-20T04:35:52.402Z,19.80
2018-06-20T04:38:20.588Z,19.90
2018-06-20T04:40:48.814Z,20.00
2018-06-20T04:43:17.027Z,19.80
2018-06-20T04:45:46.131Z,19.90
2018-06-20T04:48:14.365Z,20.00
2018-06-20T04:50:42.570Z,20.10
2018-06-20T04:53:10.825Z,20.20
2018-06-20T04:55:39.079Z,20.20
2018-06-20T04:58:07.367Z,20.30
2018-06-20T05:00:35.567Z,20.30
2018-06-20T05:03:03.828Z,20.20
2018-06-20T05:05:32.101Z,20.30
2018-06-20T05:10:28.322Z,20.50
2018-06-20T05:12:56.562Z,20.60
2018-06-20T05:15:24.922Z,20.70
2018-06-20T05:17:53.153Z,20.80
2018-06-20T05:20:21.352Z,20.80
2018-06-20T05:22:49.548Z,20.90
2018-06-20T05:27:45.729Z,20.80
2018-06-20T05:30:13.902Z,20.80
2018-06-20T05:32:42.117Z,20.90
2018-06-20T05:35:10.351Z,21.00
2018-06-20T05:40:06.714Z,21.10
2018-06-20T05:45:02.886Z,21.20
2018-06-20T05:47:31.178Z,21.30
2018-06-20T05:49:59.372Z,21.50
2018-06-20T05:52:27.580Z,21.70
2018-06-20T05:54:55.787Z,21.80
2018-06-20T05:57:23.976Z,21.80
2018-06-20T05:59:52.191Z,21.90
2018-06-20T06:02:20.402Z,22.10
2018-06-20T06:04:48.620Z,22.30
2018-06-20T06:07:16.835Z,22.30
2018-06-20T06:09:45.042Z,22.40
2018-06-20T06:12:13.239Z,22.50
2018-06-20T06:17:09.455Z,22.70
2018-06-20T06:19:37.625Z,22.80
2018-06-20T06:22:05.855Z,22.90
2018-06-20T06:24:34.039Z,23.00
2018-06-20T06:29:30.251Z,23.50
2018-06-20T06:31:58.468Z,23.50
2018-06-20T06:34:26.672Z,23.90
2018-06-20T06:36:54.953Z,24.10
2018-06-20T06:39:23.135Z,24.20
2018-06-20T06:41:51.403Z,24.50
2018-06-20T06:44:19.619Z,25.00
2018-06-20T06:46:47.831Z,25.60
2018-06-20T06:51:44.135Z,26.40
2018-06-20T06:54:12.360Z,26.90
2018-06-20T06:56:40.595Z,26.80
2018-06-20T06:59:08.787Z,27.40
2018-06-20T07:01:37.005Z,28.10
2018-06-20T07:04:05.207Z,28.80
2018-06-20T07:06:33.408Z,28.80
2018-06-20T07:09:01.595Z,29.60
2018-06-20T07:11:29.866Z,29.80
2018-06-20T07:13:58.060Z,29.20
2018-06-20T07:16:26.241Z,29.80
2018-06-20T07:18:54.568Z,30.00
2018-06-20T07:21:22.768Z,30.20
2018-06-20T07:23:51.003Z,30.40
2018-06-20T07:26:19.923Z,31.20
2018-06-20T07:31:16.065Z,32.10
2018-06-20T07:33:44.283Z,32.30
2018-06-20T07:36:12.628Z,32.20
2018-06-20T07:38:40.701Z,31.50
2018-06-20T07:41:08.935Z,32.20
2018-06-20T07:43:37.149Z,33.20
2018-06-20T07:46:05.520Z,33.80
2018-06-20T07:48:33.728Z,33.80
2018-06-20T07:51:02.011Z,33.90
2018-06-20T07:53:30.219Z,33.90
2018-06-20T07:58:31.672Z,35.70
2018-06-20T08:01:05.533Z,34.40
2018-06-20T08:03:39.228Z,35.10
2018-06-20T08:07:16.072Z,35.80
2018-06-20T08:09:49.613Z,35.80
2018-06-20T08:12:23.440Z,35.30
2018-06-20T08:14:56.987Z,35.30
2018-06-20T08:17:30.727Z,35.60
2018-06-20T08:20:00.574Z,35.30
2018-06-20T08:22:29.075Z,35.10
2018-06-20T08:25:01.963Z,35.60
2018-06-20T08:27:31.225Z,36.20
2018-06-20T08:30:00.556Z,36.10
2018-06-20T08:32:28.767Z,36.10
2018-06-20T08:34:56.964Z,36.40
2018-06-20T08:37:25.179Z,36.40
2018-06-20T08:39:53.391Z,36.80
2018-06-20T08:42:22.167Z,35.90
2018-06-20T08:44:50.364Z,35.30
2018-06-20T08:47:18.559Z,34.40
2018-06-20T08:49:46.756Z,33.50
2018-06-20T08:52:15.140Z,33.60
2018-06-20T08:54:43.354Z,34.30
2018-06-20T08:57:11.564Z,34.90
2018-06-20T09:02:07.897Z,36.70
2018-06-20T09:04:41.579Z,35.20
2018-06-20T09:07:15.368Z,33.20
2018-06-20T09:09:49.047Z,32.90
2018-06-20T09:12:22.623Z,32.00
2018-06-20T09:17:30.007Z,30.70
2018-06-20T09:19:59.856Z,31.40
2018-06-20T09:24:56.043Z,32.10
2018-06-20T09:27:24.230Z,32.90
2018-06-20T09:29:52.496Z,34.60
2018-06-20T09:32:20.771Z,35.10
2018-06-20T09:34:50.436Z,34.70
2018-06-20T09:37:18.715Z,36.70
2018-06-20T09:39:46.947Z,38.70
2018-06-20T09:42:15.226Z,39.30
2018-06-20T09:44:43.475Z,39.50
2018-06-20T09:47:11.636Z,38.70
2018-06-20T09:49:39.828Z,38.00
2018-06-20T09:52:08.064Z,38.40
2018-06-20T09:54:36.359Z,38.60
2018-06-20T09:57:04.547Z,38.50
2018-06-20T09:59:38.270Z,38.70
2018-06-20T10:04:45.396Z,42.00
2018-06-20T10:08:21.832Z,41.90
2018-06-20T10:10:55.555Z,40.50
2018-06-20T10:13:25.104Z,39.20
2018-06-20T10:15:53.327Z,37.70
2018-06-20T10:20:50.063Z,36.10
2018-06-20T10:23:18.252Z,37.50
2018-06-20T10:25:46.479Z,39.00
2018-06-20T10:28:14.691Z,40.50
2018-06-20T10:30:42.884Z,40.40
2018-06-20T10:33:11.112Z,40.80
2018-06-20T10:35:39.314Z,41.70
2018-06-20T10:38:07.568Z,40.80
2018-06-20T10:40:35.774Z,40.80
2018-06-20T10:43:04.004Z,40.90
2018-06-20T10:45:37.780Z,42.60
2018-06-20T10:48:11.328Z,42.70
2018-06-20T10:50:39.524Z,39.70
2018-06-20T10:53:07.729Z,37.90
2018-06-20T10:55:37.796Z,35.50
2018-06-20T11:00:45.877Z,34.90
2018-06-20T11:03:19.672Z,36.60
2018-06-20T11:06:57.504Z,38.00
2018-06-20T11:09:31.105Z,39.80
2018-06-20T11:12:04.639Z,41.00
2018-06-20T11:14:32.848Z,41.40
2018-06-20T11:17:01.076Z,42.30
2018-06-20T11:19:29.259Z,43.30
2018-06-20T11:21:57.512Z,44.10
2018-06-20T11:26:53.762Z,41.30
2018-06-20T11:29:22.027Z,39.60
2018-06-20T11:31:50.194Z,40.40
2018-06-20T11:34:18.374Z,41.20
2018-06-20T11:36:46.615Z,41.20
2018-06-20T11:39:14.876Z,41.80
2018-06-20T11:41:43.116Z,41.60
2018-06-20T11:44:11.332Z,41.20
2018-06-20T11:49:12.965Z,37.90
2018-06-20T11:51:43.288Z,36.20
2018-06-20T11:54:11.635Z,34.80
2018-06-20T11:56:40.170Z,33.90
2018-06-20T11:59:13.841Z,33.70
2018-06-20T12:04:20.963Z,37.60
2018-06-20T12:06:54.599Z,37.10
2018-06-20T12:09:28.189Z,36.30
2018-06-20T12:12:01.668Z,36.60
2018-06-20T12:14:35.331Z,38.30
2018-06-20T12:17:02.791Z,39.80
2018-06-20T12:19:36.259Z,40.50
2018-06-20T12:22:09.929Z,41.20
2018-06-20T12:24:43.431Z,42.30
2018-06-20T12:27:17.081Z,43.40
2018-06-20T12:29:50.428Z,43.60
2018-06-20T12:32:23.922Z,43.10
2018-06-20T12:34:57.526Z,42.00
2018-06-20T12:37:31.050Z,42.70
2018-06-20T12:40:04.264Z,43.40
2018-06-20T12:42:37.806Z,44.20
2018-06-20T12:45:07.599Z,43.10
2018-06-20T12:50:14.915Z,42.30
2018-06-20T12:55:11.123Z,42.20
2018-06-20T12:57:39.559Z,41.20
2018-06-20T13:02:35.767Z,38.80
2018-06-20T13:05:04.002Z,37.00
2018-06-20T13:07:32.207Z,35.60
2018-06-20T13:10:00.519Z,34.30
2018-06-20T13:12:28.719Z,34.50
2018-06-20T13:14:56.947Z,34.20
2018-06-20T13:17:25.171Z,33.20
2018-06-20T13:19:53.407Z,32.40
2018-06-20T13:22:21.664Z,31.80
2018-06-20T13:24:49.914Z,31.60
2018-06-20T13:29:57.057Z,30.60
2018-06-20T13:32:30.922Z,30.40
2018-06-20T13:35:04.460Z,30.30
2018-06-20T13:37:37.972Z,29.70
2018-06-20T13:40:11.560Z,29.70
2018-06-20T13:42:45.296Z,29.30
2018-06-20T13:45:18.995Z,29.40
2018-06-20T13:47:52.714Z,29.50
2018-06-20T13:50:20.943Z,29.50
2018-06-20T13:55:17.365Z,29.00
2018-06-20T13:57:45.672Z,28.60
2018-06-20T14:02:41.810Z,28.70
2018-06-20T14:05:10.031Z,28.90
2018-06-20T14:07:38.287Z,29.00
2018-06-20T14:15:02.564Z,28.60
2018-06-20T14:17:30.771Z,28.70
2018-06-20T14:20:04.223Z,28.60
2018-06-20T14:22:32.430Z,28.40
2018-06-20T14:25:00.631Z,28.40
2018-06-20T14:27:28.857Z,28.30
2018-06-20T14:29:57.106Z,28.40
2018-06-20T14:32:30.611Z,28.40
2018-06-20T14:35:04.326Z,28.40
2018-06-20T14:37:38.054Z,28.50
2018-06-20T14:40:11.783Z,28.50
2018-06-20T14:42:45.459Z,28.40
2018-06-20T14:46:17.789Z,28.40
2018-06-20T14:48:46.904Z,28.50
2018-06-20T14:51:15.410Z,28.60
2018-06-20T14:53:44.290Z,28.60
2018-06-20T14:56:12.551Z,28.60
2018-06-20T14:58:41.047Z,28.40
2018-06-20T15:03:37.299Z,28.30
2018-06-20T15:06:05.598Z,28.30
2018-06-20T15:08:33.841Z,28.20
2018-06-20T15:11:02.096Z,28.10
2018-06-20T15:13:30.299Z,28.40
2018-06-20T15:17:01.972Z,28.30
2018-06-20T15:19:30.211Z,28.20
2018-06-20T15:21:58.433Z,28.10
2018-06-20T15:24:26.753Z,27.90
2018-06-20T15:27:00.267Z,27.90
2018-06-20T15:29:33.809Z,27.90
2018-06-20T15:32:07.533Z,27.80
2018-06-20T15:34:41.340Z,27.60
2018-06-20T15:37:15.117Z,27.60
2018-06-20T15:39:43.387Z,27.60
2018-06-20T15:44:39.775Z,27.60
2018-06-20T15:47:07.968Z,27.60
2018-06-20T15:49:36.246Z,27.60
2018-06-20T15:52:04.465Z,27.60
2018-06-20T15:57:00.709Z,27.60
2018-06-20T16:01:57.628Z,27.50
2018-06-20T16:04:25.847Z,27.50
2018-06-20T16:06:54.127Z,27.50
2018-06-20T16:09:27.692Z,27.40
2018-06-20T16:11:56.023Z,27.40
2018-06-20T16:14:24.268Z,27.40
2018-06-20T16:16:52.611Z,27.40
2018-06-20T16:19:26.119Z,27.50
2018-06-20T16:21:59.871Z,27.40
2018-06-20T16:24:33.551Z,27.30
2018-06-20T16:27:08.320Z,27.20
2018-06-20T16:29:42.088Z,27.30
2018-06-20T16:32:10.602Z,27.30
2018-06-20T16:34:38.838Z,27.30
2018-06-20T16:37:07.040Z,27.30
2018-06-20T16:39:35.390Z,27.30
2018-06-20T16:42:03.672Z,27.30
2018-06-20T16:44:31.948Z,27.20
2018-06-20T16:49:28.396Z,27.20
2018-06-20T16:51:56.644Z,27.20
2018-06-20T16:54:24.939Z,27.10
2018-06-20T17:04:23.595Z,27.00
2018-06-20T17:06:51.804Z,27.00
2018-06-20T17:11:53.319Z,27.00
2018-06-20T17:14:26.708Z,26.90
2018-06-20T17:17:00.239Z,26.90
2018-06-20T17:19:33.791Z,26.90
2018-06-20T17:22:07.501Z,26.90
2018-06-20T17:24:41.353Z,26.90
2018-06-20T17:27:09.522Z,26.90
2018-06-20T17:29:37.743Z,26.80
2018-06-20T17:37:01.949Z,26.70
2018-06-20T17:39:30.177Z,26.70
2018-06-20T17:41:58.391Z,26.70
2018-06-20T17:44:26.582Z,26.70
2018-06-20T17:46:54.871Z,26.70
2018-06-20T17:49:23.100Z,26.60
2018-06-20T17:51:51.316Z,26.60
2018-06-20T17:54:19.526Z,26.60
2018-06-20T17:59:15.694Z,26.60
2018-06-20T18:04:16.411Z,26.60
2018-06-20T18:06:50.094Z,26.50
2018-06-20T18:09:23.792Z,26.40
2018-06-20T18:11:57.411Z,26.40
2018-06-20T18:14:31.055Z,26.40
2018-06-20T18:19:28.860Z,26.30
2018-06-20T18:21:57.106Z,26.30
2018-06-20T18:24:25.823Z,26.30
2018-06-20T18:29:22.311Z,26.30
2018-06-20T18:31:50.537Z,26.20
2018-06-20T18:34:18.731Z,26.20
2018-06-20T18:39:14.975Z,26.20
2018-06-20T18:41:43.356Z,26.10
2018-06-20T18:44:11.563Z,26.00
2018-06-20T18:51:35.676Z,25.90
2018-06-20T18:54:03.923Z,25.90
2018-06-20T18:56:32.119Z,25.90
2018-06-20T18:59:05.682Z,25.80
2018-06-20T19:01:39.525Z,25.80
2018-06-20T19:04:13.299Z,25.70
2018-06-20T19:06:47.046Z,25.70
2018-06-20T19:09:18.639Z,25.60
2018-06-20T19:11:47.119Z,25.50
2018-06-20T19:16:43.344Z,25.30
2018-06-20T19:19:11.539Z,25.30
2018-06-20T19:26:35.722Z,25.10
2018-06-20T19:29:03.917Z,25.10
2018-06-20T19:31:32.125Z,25.00
2018-06-20T19:34:00.403Z,25.00
2018-06-20T19:36:28.785Z,24.90
2018-06-20T19:38:57.007Z,24.90
2018-06-20T19:41:25.203Z,24.90
2018-06-20T19:43:58.847Z,24.80
2018-06-20T19:46:27.050Z,24.70
2018-06-20T19:48:55.388Z,24.70
2018-06-20T19:51:23.585Z,24.70
2018-06-20T19:53:51.776Z,24.70
2018-06-20T19:56:19.992Z,24.60
2018-06-20T19:58:48.457Z,24.70
2018-06-20T20:01:16.668Z,24.50
2018-06-20T20:03:44.908Z,24.40
2018-06-20T20:06:13.160Z,24.40
2018-06-20T20:08:41.436Z,24.40
2018-06-20T20:11:09.633Z,24.30
2018-06-20T20:13:37.909Z,24.30
2018-06-20T20:16:06.123Z,24.20
2018-06-20T20:18:34.355Z,24.20
2018-06-20T20:21:02.554Z,24.20
2018-06-20T20:23:30.799Z,24.10
2018-06-20T20:25:59.008Z,24.00
2018-06-20T20:28:27.255Z,24.00
2018-06-20T20:30:55.547Z,23.90
2018-06-20T20:33:23.842Z,23.90
2018-06-20T20:35:52.078Z,23.80
2018-06-20T20:38:20.272Z,23.80
2018-06-20T20:40:48.507Z,23.70
2018-06-20T20:43:16.851Z,23.60
2018-06-20T20:45:45.139Z,23.60
2018-06-20T20:48:13.367Z,23.50
2018-06-20T20:53:10.091Z,23.50
2018-06-20T20:55:38.312Z,23.50
2018-06-20T20:58:06.564Z,23.40
2018-06-20T21:00:34.884Z,23.40
2018-06-20T21:03:03.033Z,23.30
2018-06-20T21:05:31.351Z,23.30
2018-06-20T21:07:59.558Z,23.20
2018-06-20T21:10:27.895Z,23.20
2018-06-20T21:12:56.120Z,23.10
2018-06-20T21:15:24.324Z,23.20
2018-06-20T21:17:52.570Z,23.20
2018-06-20T21:20:20.775Z,23.20
2018-06-20T21:22:49.023Z,23.20
2018-06-20T21:25:17.270Z,23.20
2018-06-20T21:30:13.515Z,23.10
2018-06-20T21:32:41.742Z,23.00
2018-06-20T21:35:09.999Z,23.00
2018-06-20T21:37:38.216Z,23.00
2018-06-20T21:40:09.826Z,22.90
2018-06-20T21:42:38.114Z,22.80
2018-06-20T21:47:34.961Z,22.80
2018-06-20T21:52:31.331Z,22.70
2018-06-20T21:59:55.841Z,22.70
2018-06-20T22:02:24.892Z,22.70
2018-06-20T22:04:53.260Z,22.60
2018-06-20T22:07:21.490Z,22.60
2018-06-20T22:09:49.740Z,22.50
2018-06-20T22:12:18.048Z,22.50
2018-06-20T22:14:46.264Z,22.50
2018-06-20T22:17:14.474Z,22.50
2018-06-20T22:19:42.737Z,22.40
2018-06-20T22:24:38.955Z,22.30
2018-06-20T22:27:07.182Z,22.30
2018-06-20T22:29:36.353Z,22.20
2018-06-20T22:32:04.626Z,22.20
2018-06-20T22:34:32.811Z,22.20
2018-06-20T22:39:29.044Z,22.20
2018-06-20T22:41:57.233Z,22.10
2018-06-20T22:44:25.474Z,21.90
2018-06-20T22:46:53.899Z,22.00
2018-06-20T22:49:22.136Z,22.00
2018-06-20T22:51:50.419Z,22.00
2018-06-20T22:54:18.619Z,21.90
2018-06-20T22:56:46.812Z,21.70
2018-06-20T22:59:15.060Z,21.60
2018-06-20T23:01:43.376Z,21.50
2018-06-20T23:04:11.616Z,21.40
2018-06-20T23:06:39.803Z,21.20
2018-06-20T23:09:09.278Z,21.30
2018-06-20T23:11:46.534Z,21.40
2018-06-20T23:14:14.987Z,21.50
2018-06-20T23:16:43.536Z,21.50
2018-06-20T23:21:40.734Z,21.40
2018-06-20T23:24:09.041Z,21.40
2018-06-20T23:26:37.339Z,21.40
2018-06-20T23:29:05.545Z,21.30
2018-06-20T23:31:33.830Z,21.20
2018-06-20T23:38:57.981Z,21.20
2018-06-20T23:41:26.176Z,21.30
2018-06-20T23:43:54.379Z,21.30
2018-06-20T23:46:22.572Z,21.20
2018-06-20T23:48:50.775Z,21.20
2018-06-20T23:51:19.015Z,21.10
2018-06-20T23:53:47.231Z,21.10
2018-06-20T23:58:43.367Z,21.00
